UAL3731 KRIV-KFOE
Flight info
| Callsign | UAL3731 |
|---|---|
| Flight time | N/A |
| Altitude | 37000 |
| Route | SKYES4 TRM DCT AVRRY DCT PKE J96 DRK/N0478F390 J96 CIM DCT SLN DCT |
| Aircraft | B789/H-SADE3GHIJ1J2J4J5M1P2RWXYZ/LB1D1 |
Departure
| Time | 2026-04-20 18:22 |
|---|---|
| Airport | March Air Reserve Base (KRIV) |
Arrival
| Time | N/A |
|---|---|
| Airport | Topeka Regional Airport (KFOE) |
| Time | Latitude | Longitude | Altitude | Speed | Heading |
|---|---|---|---|---|---|
| 2026-04-20 16:07 | 33.89215 | -117.25317 | 1529 ft | 0 kts | 313° |
| 2026-04-20 18:13 | 33.89217 | -117.25319 | 1529 ft | 3 kts | 310° |
| 2026-04-20 18:13 | 33.89228 | -117.25369 | 1522 ft | 6 kts | 268° |
| 2026-04-20 18:13 | 33.89203 | -117.25424 | 1521 ft | 12 kts | 226° |
| 2026-04-20 18:13 | 33.89134 | -117.25526 | 1526 ft | 16 kts | 243° |
| 2026-04-20 18:14 | 33.89076 | -117.25632 | 1523 ft | 15 kts | 229° |
| 2026-04-20 18:14 | 33.89009 | -117.25693 | 1528 ft | 7 kts | 184° |
| 2026-04-20 18:14 | 33.88965 | -117.25668 | 1527 ft | 9 kts | 139° |
| 2026-04-20 18:14 | 33.88920 | -117.25608 | 1524 ft | 10 kts | 131° |
| 2026-04-20 18:15 | 33.88871 | -117.25543 | 1523 ft | 11 kts | 131° |
| 2026-04-20 18:15 | 33.88818 | -117.25474 | 1527 ft | 11 kts | 137° |
| 2026-04-20 18:15 | 33.88752 | -117.25402 | 1526 ft | 14 kts | 137° |
| 2026-04-20 18:15 | 33.88678 | -117.25320 | 1523 ft | 15 kts | 137° |
| 2026-04-20 18:16 | 33.88605 | -117.25230 | 1520 ft | 15 kts | 134° |
| 2026-04-20 18:16 | 33.88530 | -117.25135 | 1517 ft | 16 kts | 134° |
| 2026-04-20 18:16 | 33.88450 | -117.25037 | 1521 ft | 17 kts | 134° |
| 2026-04-20 18:16 | 33.88366 | -117.24935 | 1520 ft | 18 kts | 136° |
| 2026-04-20 18:17 | 33.88272 | -117.24842 | 1519 ft | 17 kts | 155° |
| 2026-04-20 18:17 | 33.88171 | -117.24848 | 1516 ft | 15 kts | 202° |
| 2026-04-20 18:17 | 33.88077 | -117.24901 | 1515 ft | 16 kts | 206° |
| 2026-04-20 18:17 | 33.87967 | -117.24968 | 1514 ft | 22 kts | 207° |
| 2026-04-20 18:18 | 33.87811 | -117.25061 | 1513 ft | 26 kts | 205° |
| 2026-04-20 18:18 | 33.87650 | -117.25152 | 1513 ft | 24 kts | 206° |
| 2026-04-20 18:18 | 33.87505 | -117.25188 | 1516 ft | 19 kts | 165° |
| 2026-04-20 18:18 | 33.87384 | -117.25115 | 1514 ft | 21 kts | 152° |
| 2026-04-20 18:19 | 33.87244 | -117.25025 | 1515 ft | 24 kts | 152° |
| 2026-04-20 18:19 | 33.87096 | -117.24929 | 1511 ft | 24 kts | 152° |
| 2026-04-20 18:19 | 33.86950 | -117.24833 | 1509 ft | 24 kts | 152° |
| 2026-04-20 18:19 | 33.86800 | -117.24738 | 1506 ft | 24 kts | 150° |
| 2026-04-20 18:20 | 33.86657 | -117.24649 | 1504 ft | 20 kts | 167° |
| 2026-04-20 18:20 | 33.86578 | -117.24680 | 1502 ft | 11 kts | 225° |
| 2026-04-20 18:20 | 33.86541 | -117.24763 | 1501 ft | 12 kts | 248° |
| 2026-04-20 18:20 | 33.86531 | -117.24829 | 1502 ft | 6 kts | 281° |
| 2026-04-20 18:21 | 33.86600 | -117.24910 | 1503 ft | 33 kts | 330° |
| 2026-04-20 18:21 | 33.86948 | -117.25150 | 1512 ft | 82 kts | 330° |
| 2026-04-20 18:21 | 33.87587 | -117.25603 | 1518 ft | 130 kts | 329° |
| 2026-04-20 18:21 | 33.88494 | -117.26245 | 1528 ft | 171 kts | 330° |
| 2026-04-20 18:22 | 33.89555 | -117.26999 | 1904 ft | 181 kts | 328° |
| 2026-04-20 18:22 | 33.90620 | -117.27852 | 2549 ft | 188 kts | 325° |
| 2026-04-20 18:22 | 33.91712 | -117.28756 | 3233 ft | 193 kts | 326° |
| 2026-04-20 18:22 | 33.92858 | -117.29668 | 3916 ft | 201 kts | 321° |
| 2026-04-20 18:23 | 33.93564 | -117.31153 | 4399 ft | 217 kts | 276° |
| 2026-04-20 18:23 | 33.93224 | -117.32941 | 4950 ft | 230 kts | 235° |
| 2026-04-20 18:23 | 33.91921 | -117.34124 | 5454 ft | 250 kts | 195° |
| 2026-04-20 18:23 | 33.90143 | -117.34146 | 6133 ft | 263 kts | 168° |
| 2026-04-20 18:24 | 33.88372 | -117.33603 | 7205 ft | 264 kts | 166° |
| 2026-04-20 18:24 | 33.86586 | -117.33135 | 8170 ft | 268 kts | 170° |
| 2026-04-20 18:24 | 33.84719 | -117.32808 | 9115 ft | 273 kts | 173° |
| 2026-04-20 18:24 | 33.82820 | -117.32510 | 10045 ft | 278 kts | 172° |
| 2026-04-20 18:25 | 33.80837 | -117.32160 | 10502 ft | 301 kts | 172° |
| 2026-04-20 18:25 | 33.78675 | -117.31759 | 10748 ft | 328 kts | 172° |
| 2026-04-20 18:25 | 33.76374 | -117.31340 | 11461 ft | 336 kts | 172° |
| 2026-04-20 18:25 | 33.74050 | -117.30924 | 12387 ft | 340 kts | 173° |
| 2026-04-20 18:26 | 33.71695 | -117.30503 | 13265 ft | 344 kts | 173° |
| 2026-04-20 18:26 | 33.69311 | -117.30074 | 14133 ft | 349 kts | 173° |
| 2026-04-20 18:26 | 33.66896 | -117.29640 | 14887 ft | 353 kts | 173° |
| 2026-04-20 18:26 | 33.64450 | -117.29181 | 15643 ft | 358 kts | 170° |
| 2026-04-20 18:27 | 33.62110 | -117.28091 | 16375 ft | 367 kts | 152° |
| 2026-04-20 18:27 | 33.59963 | -117.26382 | 17049 ft | 374 kts | 148° |
| 2026-04-20 18:27 | 33.57821 | -117.24590 | 17782 ft | 378 kts | 147° |
| 2026-04-20 18:27 | 33.55657 | -117.22764 | 18488 ft | 383 kts | 148° |
| 2026-04-20 18:28 | 33.53452 | -117.20936 | 19113 ft | 387 kts | 148° |
| 2026-04-20 18:28 | 33.51220 | -117.19096 | 19697 ft | 392 kts | 148° |
| 2026-04-20 18:28 | 33.48966 | -117.17225 | 20284 ft | 396 kts | 148° |
| 2026-04-20 18:28 | 33.46689 | -117.15331 | 20894 ft | 400 kts | 148° |
| 2026-04-20 18:29 | 33.44383 | -117.13418 | 21440 ft | 405 kts | 148° |
| 2026-04-20 18:29 | 33.42215 | -117.11232 | 22015 ft | 412 kts | 134° |
| 2026-04-20 18:29 | 33.40539 | -117.08407 | 22529 ft | 422 kts | 119° |
| 2026-04-20 18:29 | 33.39477 | -117.05100 | 23069 ft | 430 kts | 104° |
| 2026-04-20 18:30 | 33.39146 | -117.01528 | 23595 ft | 436 kts | 89° |
| 2026-04-20 18:30 | 33.39596 | -116.97920 | 24034 ft | 442 kts | 73° |
| 2026-04-20 18:30 | 33.40559 | -116.94415 | 24433 ft | 446 kts | 72° |
| 2026-04-20 18:30 | 33.41574 | -116.90902 | 24909 ft | 448 kts | 71° |
| 2026-04-20 18:31 | 33.42610 | -116.87374 | 25364 ft | 450 kts | 71° |
| 2026-04-20 18:31 | 33.43628 | -116.83818 | 25782 ft | 453 kts | 72° |
| 2026-04-20 18:31 | 33.44640 | -116.80240 | 26205 ft | 455 kts | 72° |
| 2026-04-20 18:31 | 33.45654 | -116.76688 | 26618 ft | 458 kts | 72° |
| 2026-04-20 18:32 | 33.46693 | -116.73072 | 27008 ft | 460 kts | 72° |
| 2026-04-20 18:32 | 33.47731 | -116.69439 | 27409 ft | 463 kts | 72° |
| 2026-04-20 18:32 | 33.48771 | -116.65777 | 27788 ft | 465 kts | 72° |
| 2026-04-20 18:32 | 33.49816 | -116.62097 | 28183 ft | 468 kts | 72° |
| 2026-04-20 18:33 | 33.50866 | -116.58405 | 28561 ft | 470 kts | 72° |
| 2026-04-20 18:33 | 33.51923 | -116.54683 | 28943 ft | 473 kts | 72° |
| 2026-04-20 18:33 | 33.52980 | -116.50952 | 29330 ft | 474 kts | 72° |
| 2026-04-20 18:33 | 33.54043 | -116.47195 | 29686 ft | 477 kts | 72° |
| 2026-04-20 18:34 | 33.55110 | -116.43419 | 30015 ft | 479 kts | 72° |
| 2026-04-20 18:34 | 33.56181 | -116.39627 | 30313 ft | 481 kts | 72° |
| 2026-04-20 18:34 | 33.57255 | -116.35816 | 30604 ft | 483 kts | 72° |
| 2026-04-20 18:34 | 33.58329 | -116.31997 | 30863 ft | 485 kts | 72° |
| 2026-04-20 18:35 | 33.59407 | -116.28160 | 31125 ft | 486 kts | 72° |
| 2026-04-20 18:35 | 33.60488 | -116.24311 | 31414 ft | 487 kts | 72° |
| 2026-04-20 18:35 | 33.61570 | -116.20455 | 31678 ft | 489 kts | 72° |
| 2026-04-20 18:35 | 33.62652 | -116.16578 | 31913 ft | 490 kts | 73° |
| 2026-04-20 18:36 | 33.63523 | -116.12677 | 32084 ft | 492 kts | 77° |
| 2026-04-20 18:36 | 33.64366 | -116.08689 | 32347 ft | 493 kts | 76° |
| 2026-04-20 18:36 | 33.65215 | -116.04698 | 32585 ft | 495 kts | 76° |
| 2026-04-20 18:36 | 33.66068 | -116.00681 | 32839 ft | 496 kts | 76° |
| 2026-04-20 18:37 | 33.66918 | -115.96657 | 33058 ft | 498 kts | 76° |
| 2026-04-20 18:37 | 33.67766 | -115.92627 | 33284 ft | 499 kts | 76° |
| 2026-04-20 18:37 | 33.68619 | -115.88579 | 33498 ft | 501 kts | 76° |
| 2026-04-20 18:37 | 33.69474 | -115.84519 | 33708 ft | 502 kts | 76° |
| 2026-04-20 18:38 | 33.70039 | -115.81828 | 33840 ft | 503 kts | 76° |
| 2026-04-20 18:38 | 33.70894 | -115.77746 | 34025 ft | 505 kts | 76° |
| 2026-04-20 18:38 | 33.71751 | -115.73645 | 34215 ft | 506 kts | 76° |
| 2026-04-20 18:38 | 33.72607 | -115.69549 | 34462 ft | 505 kts | 76° |
| 2026-04-20 18:39 | 33.73461 | -115.65462 | 34722 ft | 504 kts | 76° |
| 2026-04-20 18:39 | 33.74311 | -115.61379 | 34979 ft | 503 kts | 76° |
| 2026-04-20 18:39 | 33.75222 | -115.57317 | 35215 ft | 502 kts | 69° |
| 2026-04-20 18:39 | 33.76621 | -115.53487 | 35437 ft | 501 kts | 64° |
| 2026-04-20 18:40 | 33.78127 | -115.49707 | 35653 ft | 501 kts | 64° |
| 2026-04-20 18:40 | 33.79643 | -115.45948 | 35918 ft | 499 kts | 64° |
| 2026-04-20 18:40 | 33.81142 | -115.42184 | 36172 ft | 498 kts | 64° |
| 2026-04-20 18:40 | 33.82622 | -115.38425 | 36412 ft | 497 kts | 64° |
| 2026-04-20 18:41 | 33.84108 | -115.34670 | 36647 ft | 497 kts | 64° |
| 2026-04-20 18:41 | 33.85598 | -115.30924 | 36874 ft | 496 kts | 64° |
| 2026-04-20 18:41 | 33.88550 | -115.23461 | 36971 ft | 497 kts | 64° |
| 2026-04-20 18:42 | 33.91508 | -115.15964 | 36960 ft | 494 kts | 64° |
| 2026-04-20 18:42 | 33.94449 | -115.08497 | 36958 ft | 494 kts | 64° |
| 2026-04-20 18:43 | 33.97384 | -115.01020 | 36963 ft | 493 kts | 64° |
| 2026-04-20 18:43 | 34.00316 | -114.93547 | 36957 ft | 493 kts | 64° |
| 2026-04-20 18:44 | 34.03239 | -114.86068 | 36952 ft | 492 kts | 64° |
| 2026-04-20 18:44 | 34.06155 | -114.78596 | 36949 ft | 492 kts | 64° |
| 2026-04-20 18:45 | 34.09047 | -114.71172 | 36948 ft | 491 kts | 64° |
| 2026-04-20 18:45 | 34.11544 | -114.63513 | 36956 ft | 493 kts | 70° |
| 2026-04-20 18:46 | 34.13737 | -114.55675 | 36951 ft | 491 kts | 70° |
| 2026-04-20 18:46 | 34.15950 | -114.47877 | 36955 ft | 491 kts | 70° |
| 2026-04-20 18:47 | 34.18137 | -114.40072 | 36952 ft | 490 kts | 70° |
| 2026-04-20 18:47 | 34.20328 | -114.32278 | 36952 ft | 489 kts | 70° |
| 2026-04-20 18:48 | 34.22504 | -114.24487 | 36948 ft | 490 kts | 70° |
| 2026-04-20 18:48 | 34.24681 | -114.16688 | 36950 ft | 488 kts | 70° |
| 2026-04-20 18:49 | 34.26844 | -114.08910 | 36954 ft | 488 kts | 70° |
| 2026-04-20 18:49 | 34.28987 | -114.01186 | 36955 ft | 487 kts | 70° |
| 2026-04-20 18:50 | 34.31137 | -113.93417 | 36958 ft | 487 kts | 70° |
| 2026-04-20 18:50 | 34.31863 | -113.90791 | 36960 ft | 487 kts | 70° |